createdAt,value
2018-01-28T00:02:10.905Z,4.23
2018-01-28T00:04:50.007Z,4.29
2018-01-28T00:07:19.060Z,4.37
2018-01-28T00:09:47.347Z,4.26
2018-01-28T00:12:15.780Z,4.36
2018-01-28T00:14:44.054Z,4.17
2018-01-28T00:17:12.341Z,4.24
2018-01-28T00:19:47.627Z,4.06
2018-01-28T00:22:16.666Z,4.21
2018-01-28T00:24:44.931Z,4.14
2018-01-28T00:27:13.975Z,4.30
2018-01-28T00:29:42.284Z,4.26
2018-01-28T00:32:10.571Z,4.12
2018-01-28T00:34:38.847Z,4.43
2018-01-28T00:37:07.128Z,4.28
2018-01-28T00:39:35.409Z,4.36
2018-01-28T00:42:05.651Z,4.28
2018-01-28T00:44:50.457Z,4.31
2018-01-28T00:47:25.519Z,4.32
2018-01-28T00:49:56.927Z,4.12
2018-01-28T00:52:25.219Z,4.34
2018-01-28T00:54:53.500Z,4.27
2018-01-28T00:57:21.823Z,4.22
2018-01-28T00:59:50.092Z,4.41
2018-01-28T01:02:18.969Z,4.30
2018-01-28T01:04:47.232Z,4.41
2018-01-28T01:07:17.519Z,4.43
2018-01-28T01:09:45.805Z,4.36
2018-01-28T01:12:14.093Z,4.46
2018-01-28T01:14:42.360Z,4.76
2018-01-28T01:17:10.644Z,4.66
2018-01-28T01:19:38.927Z,4.90
2018-01-28T01:22:28.179Z,4.67
2018-01-28T01:24:56.447Z,4.77
2018-01-28T01:27:24.738Z,4.81
2018-01-28T01:29:57.799Z,4.70
2018-01-28T01:32:31.127Z,4.55
2018-01-28T01:34:59.392Z,4.61
2018-01-28T01:37:32.010Z,4.63
2018-01-28T01:40:00.286Z,4.68
2018-01-28T01:42:36.639Z,4.77
2018-01-28T01:45:22.172Z,4.39
2018-01-28T01:47:50.460Z,4.53
2018-01-28T01:50:29.548Z,4.66
2018-01-28T01:53:08.700Z,4.38
2018-01-28T01:55:37.750Z,4.46
2018-01-28T01:58:06.040Z,4.47
2018-01-28T02:00:34.314Z,4.36
2018-01-28T02:06:02.864Z,4.57
2018-01-28T02:08:53.206Z,4.60
2018-01-28T02:11:21.490Z,4.49
2018-01-28T02:13:49.768Z,4.56
2018-01-28T02:16:18.061Z,4.31
2018-01-28T02:18:50.089Z,4.64
2018-01-28T02:21:18.388Z,4.67
2018-01-28T02:30:00.680Z,4.61
2018-01-28T02:32:28.957Z,4.83
2018-01-28T02:34:57.238Z,4.88
2018-01-28T02:37:25.525Z,4.83
2018-01-28T02:39:53.804Z,4.82
2018-01-28T02:42:22.864Z,4.95
2018-01-28T02:45:08.136Z,4.80
2018-01-28T02:47:36.420Z,4.85
2018-01-28T02:50:04.690Z,5.14
2018-01-28T02:52:44.115Z,5.24
2018-01-28T02:55:13.171Z,4.89
2018-01-28T02:57:58.371Z,4.57
2018-01-28T03:00:26.644Z,4.81
2018-01-28T03:03:27.484Z,4.93
2018-01-28T03:06:05.886Z,4.38
2018-01-28T03:08:41.940Z,4.45
2018-01-28T03:11:10.220Z,4.67
2018-01-28T03:13:38.498Z,4.79
2018-01-28T03:16:10.195Z,5.26
2018-01-28T03:18:49.132Z,4.99
2018-01-28T03:21:18.182Z,5.02
2018-01-28T03:23:47.380Z,4.90
2018-01-28T03:26:15.655Z,5.07
2018-01-28T03:29:03.164Z,5.22
2018-01-28T03:31:31.451Z,5.12
2018-01-28T03:33:59.725Z,4.88
2018-01-28T03:36:34.811Z,4.99
2018-01-28T03:39:03.852Z,5.16
2018-01-28T03:41:32.132Z,4.96
2018-01-28T03:44:00.395Z,4.83
2018-01-28T03:46:30.352Z,5.03
2018-01-28T03:49:01.189Z,4.96
2018-01-28T03:51:29.473Z,5.14
2018-01-28T03:53:58.696Z,4.97
2018-01-28T03:56:26.988Z,5.09
2018-01-28T03:58:55.260Z,4.82
2018-01-28T04:01:23.547Z,5.11
2018-01-28T04:03:51.824Z,5.08
2018-01-28T04:06:20.878Z,5.02
2018-01-28T04:08:49.144Z,4.91
2018-01-28T04:11:18.183Z,5.03
2018-01-28T04:13:46.463Z,4.89
2018-01-28T04:16:22.900Z,4.93
2018-01-28T04:18:51.939Z,4.77
2018-01-28T04:21:20.224Z,5.11
2018-01-28T04:23:54.938Z,5.16
2018-01-28T04:26:23.251Z,4.89
2018-01-28T04:28:51.549Z,4.74
2018-01-28T04:31:19.837Z,4.62
2018-01-28T04:33:48.124Z,4.75
2018-01-28T04:36:28.065Z,4.79
2018-01-28T04:39:06.364Z,4.85
2018-01-28T04:41:42.340Z,4.92
2018-01-28T04:44:11.379Z,5.18
2018-01-28T04:46:39.676Z,5.18
2018-01-28T04:49:07.953Z,5.15
2018-01-28T04:51:37.022Z,5.23
2018-01-28T04:54:06.052Z,5.18
2018-01-28T04:56:40.059Z,5.19
2018-01-28T04:59:09.895Z,5.08
2018-01-28T05:01:45.853Z,5.15
2018-01-28T05:04:16.905Z,5.26
2018-01-28T05:06:46.867Z,5.37
2018-01-28T05:09:15.148Z,5.33
2018-01-28T05:11:43.454Z,4.96
2018-01-28T05:14:11.747Z,5.13
2018-01-28T05:16:40.063Z,5.15
2018-01-28T05:19:08.356Z,5.19
2018-01-28T05:21:40.891Z,5.32
2018-01-28T05:24:24.375Z,5.36
2018-01-28T05:26:52.674Z,5.41
2018-01-28T05:29:20.951Z,5.37
2018-01-28T05:31:49.234Z,5.24
2018-01-28T05:34:17.512Z,5.40
2018-01-28T05:36:45.784Z,5.52
2018-01-28T05:39:14.081Z,5.35
2018-01-28T05:41:42.356Z,5.48
2018-01-28T05:44:10.649Z,5.61
2018-01-28T05:46:44.467Z,5.83
2018-01-28T05:49:16.846Z,5.86
2018-01-28T05:51:45.119Z,5.67
2018-01-28T05:54:14.177Z,5.59
2018-01-28T05:56:42.448Z,5.61
2018-01-28T05:59:10.724Z,5.91
2018-01-28T06:01:38.999Z,5.85
2018-01-28T06:04:07.295Z,5.83
2018-01-28T06:06:39.586Z,5.76
2018-01-28T06:09:07.876Z,5.81
2018-01-28T06:11:36.166Z,5.83
2018-01-28T06:14:04.460Z,5.96
2018-01-28T06:16:32.740Z,5.79
2018-01-28T06:19:04.409Z,5.88
2018-01-28T06:21:32.702Z,5.82
2018-01-28T06:24:01.006Z,5.97
2018-01-28T06:26:29.275Z,6.07
2018-01-28T06:29:02.077Z,6.09
2018-01-28T06:31:30.363Z,5.96
2018-01-28T06:33:58.649Z,6.22
2018-01-28T06:36:27.752Z,6.40
2018-01-28T06:38:56.980Z,6.16
2018-01-28T06:41:25.252Z,5.95
2018-01-28T06:43:55.491Z,5.79
2018-01-28T06:46:23.765Z,5.83
2018-01-28T06:48:53.000Z,6.12
2018-01-28T06:51:35.424Z,6.05
2018-01-28T06:54:03.699Z,5.81
2018-01-28T06:56:32.906Z,6.02
2018-01-28T06:59:07.647Z,6.31
2018-01-28T07:01:35.952Z,5.96
2018-01-28T07:04:04.231Z,5.99
2018-01-28T07:06:35.993Z,5.72
2018-01-28T07:09:04.272Z,5.95
2018-01-28T07:11:32.553Z,6.06
2018-01-28T07:14:01.589Z,5.98
2018-01-28T07:16:29.872Z,6.16
2018-01-28T07:18:59.319Z,6.27
2018-01-28T07:21:37.589Z,6.07
2018-01-28T07:24:06.636Z,6.19
2018-01-28T07:26:38.899Z,6.14
2018-01-28T07:29:07.171Z,6.21
2018-01-28T07:31:35.446Z,6.47
2018-01-28T07:34:04.489Z,6.34
2018-01-28T07:36:38.863Z,6.11
2018-01-28T07:39:07.139Z,6.32
2018-01-28T07:41:35.417Z,6.35
2018-01-28T07:44:03.721Z,6.47
2018-01-28T07:46:36.670Z,6.27
2018-01-28T07:49:05.212Z,6.15
2018-01-28T07:51:33.479Z,6.34
2018-01-28T07:54:01.770Z,6.49
2018-01-28T07:56:30.048Z,6.40
2018-01-28T07:58:58.329Z,6.43
2018-01-28T08:01:26.591Z,6.26
2018-01-28T08:03:55.640Z,6.21
2018-01-28T08:06:23.904Z,6.53
2018-01-28T08:08:53.088Z,6.40
2018-01-28T08:11:23.265Z,6.31
2018-01-28T08:14:01.974Z,6.37
2018-01-28T08:16:38.722Z,6.46
2018-01-28T08:19:07.011Z,6.26
2018-01-28T08:21:50.426Z,6.66
2018-01-28T08:24:18.975Z,6.66
2018-01-28T08:27:00.965Z,6.25
2018-01-28T08:29:29.240Z,6.22
2018-01-28T08:32:08.920Z,6.41
2018-01-28T08:34:38.004Z,6.64
2018-01-28T08:37:06.268Z,6.42
2018-01-28T08:39:51.160Z,6.59
2018-01-28T08:42:20.435Z,6.56
2018-01-28T08:45:00.887Z,6.63
2018-01-28T08:47:35.821Z,6.62
2018-01-28T08:50:04.104Z,6.41
2018-01-28T08:52:57.973Z,6.35
2018-01-28T08:55:26.259Z,6.55
2018-01-28T08:57:54.759Z,6.67
2018-01-28T09:03:24.175Z,6.43
2018-01-28T09:06:11.647Z,6.64
2018-01-28T09:08:40.312Z,6.55
2018-01-28T09:14:12.119Z,6.38
2018-01-28T09:16:40.387Z,6.78
2018-01-28T09:19:29.751Z,6.93
2018-01-28T09:24:58.977Z,6.89
2018-01-28T09:27:27.243Z,6.78
2018-01-28T09:29:55.527Z,6.88
2018-01-28T09:32:29.220Z,6.74
2018-01-28T09:35:14.953Z,6.99
2018-01-28T09:37:53.132Z,6.89
2018-01-28T09:40:22.179Z,6.74
2018-01-28T09:43:17.744Z,6.59
2018-01-28T09:46:15.772Z,6.66
2018-01-28T09:48:44.241Z,6.62
2018-01-28T09:51:24.812Z,6.42
2018-01-28T09:53:57.950Z,6.18
2018-01-28T09:56:40.388Z,6.27
2018-01-28T09:59:15.384Z,6.18
2018-01-28T10:01:44.419Z,6.27
2018-01-28T10:04:12.703Z,6.31
2018-01-28T10:06:41.308Z,6.18
2018-01-28T10:09:09.596Z,6.18
2018-01-28T10:11:48.909Z,6.63
2018-01-28T10:14:21.252Z,6.70
2018-01-28T10:16:49.536Z,6.69
2018-01-28T10:19:17.832Z,6.76
2018-01-28T10:21:46.121Z,6.67
2018-01-28T10:24:26.027Z,7.05
2018-01-28T10:26:58.738Z,6.84
2018-01-28T10:29:27.020Z,7.01
2018-01-28T10:31:55.300Z,7.22
2018-01-28T10:34:38.313Z,7.30
2018-01-28T10:37:06.585Z,7.21
2018-01-28T10:39:34.870Z,7.50
2018-01-28T10:42:03.161Z,7.78
2018-01-28T10:44:32.451Z,7.61
2018-01-28T10:47:00.719Z,7.37
2018-01-28T10:49:41.538Z,7.39
2018-01-28T10:52:27.833Z,7.42
2018-01-28T10:57:57.887Z,7.39
2018-01-28T11:03:26.452Z,7.32
2018-01-28T11:05:54.727Z,7.51
2018-01-28T11:08:29.987Z,7.64
2018-01-28T11:10:58.268Z,7.94
2018-01-28T11:13:26.545Z,7.77
2018-01-28T11:15:54.831Z,7.47
2018-01-28T11:18:33.332Z,7.76
2018-01-28T11:21:02.378Z,8.05
2018-01-28T11:23:43.236Z,8.07
2018-01-28T11:26:11.512Z,7.81
2018-01-28T11:32:00.488Z,7.83
2018-01-28T11:34:41.189Z,7.66
2018-01-28T11:37:10.222Z,7.83
2018-01-28T11:39:42.104Z,7.68
2018-01-28T11:42:31.034Z,7.63
2018-01-28T11:45:07.936Z,7.76
2018-01-28T11:47:38.924Z,7.77
2018-01-28T11:50:07.212Z,7.93
2018-01-28T11:52:35.488Z,8.08
2018-01-28T11:55:03.774Z,7.94
2018-01-28T11:57:57.780Z,7.75
2018-01-28T12:00:26.064Z,7.56
2018-01-28T12:02:54.340Z,7.68
2018-01-28T12:05:26.237Z,7.90
2018-01-28T12:07:54.529Z,7.87
2018-01-28T12:10:31.863Z,7.95
2018-01-28T12:13:07.849Z,7.79
2018-01-28T12:15:39.976Z,7.68
2018-01-28T12:18:11.780Z,7.71
2018-01-28T12:20:40.066Z,7.81
2018-01-28T12:23:08.347Z,8.05
2018-01-28T12:25:36.620Z,8.17
2018-01-28T12:28:17.697Z,8.14
2018-01-28T12:30:58.445Z,8.06
2018-01-28T12:33:31.375Z,8.14
2018-01-28T12:35:59.649Z,8.16
2018-01-28T12:38:28.886Z,8.13
2018-01-28T12:40:57.205Z,7.88
2018-01-28T12:43:25.480Z,7.98
2018-01-28T12:45:53.760Z,8.09
2018-01-28T12:48:48.972Z,8.31
2018-01-28T12:51:17.253Z,8.14
2018-01-28T12:54:03.897Z,8.30
2018-01-28T12:56:36.574Z,7.82
2018-01-28T12:59:04.857Z,8.38
2018-01-28T13:01:33.155Z,8.15
2018-01-28T13:04:03.369Z,8.20
2018-01-28T13:06:32.688Z,8.55
2018-01-28T13:09:00.984Z,8.88
2018-01-28T13:11:39.901Z,8.88
2018-01-28T13:14:08.179Z,8.79
2018-01-28T13:16:37.240Z,8.70
2018-01-28T13:19:05.514Z,8.89
2018-01-28T13:21:34.439Z,8.53
2018-01-28T13:24:02.696Z,8.54
2018-01-28T13:26:38.111Z,8.47
2018-01-28T13:29:07.148Z,8.13
2018-01-28T13:31:35.427Z,8.01
2018-01-28T13:34:08.222Z,8.20
2018-01-28T13:36:40.549Z,8.08
2018-01-28T13:39:10.749Z,8.08
2018-01-28T13:41:39.033Z,8.47
2018-01-28T13:44:07.301Z,8.48
2018-01-28T13:46:46.544Z,8.09
2018-01-28T13:49:18.646Z,8.29
2018-01-28T13:51:46.925Z,8.44
2018-01-28T13:54:21.365Z,8.67
2018-01-28T13:57:10.279Z,8.44
2018-01-28T13:59:39.557Z,8.16
2018-01-28T14:02:07.829Z,8.42
2018-01-28T14:04:36.843Z,8.69
2018-01-28T14:07:05.117Z,8.99
2018-01-28T14:09:34.143Z,8.78
2018-01-28T14:12:02.428Z,8.89
2018-01-28T14:14:30.692Z,8.63
2018-01-28T14:16:58.960Z,8.88
2018-01-28T14:19:27.253Z,8.83
2018-01-28T14:21:56.545Z,8.81
2018-01-28T14:24:24.821Z,9.08
2018-01-28T14:26:53.092Z,8.93
2018-01-28T14:29:24.369Z,9.03
2018-01-28T14:31:52.644Z,9.11
2018-01-28T14:34:22.869Z,9.20
2018-01-28T14:36:51.144Z,9.37
2018-01-28T14:39:19.412Z,9.36
2018-01-28T14:41:54.046Z,9.21
2018-01-28T14:44:24.315Z,9.27
2018-01-28T14:46:52.587Z,9.16
2018-01-28T14:49:21.641Z,9.09
2018-01-28T14:51:49.948Z,9.18
2018-01-28T14:54:18.201Z,9.76
2018-01-28T14:56:46.488Z,9.78
2018-01-28T14:59:14.771Z,9.43
2018-01-28T15:01:43.036Z,9.08
2018-01-28T15:04:12.072Z,9.21
2018-01-28T15:06:40.345Z,9.20
2018-01-28T15:09:08.604Z,9.29
2018-01-28T15:11:36.882Z,9.37
2018-01-28T15:14:05.143Z,9.02
2018-01-28T15:16:33.414Z,8.90
2018-01-28T15:19:02.642Z,8.86
2018-01-28T15:21:31.832Z,8.73
2018-01-28T15:24:00.102Z,8.64
2018-01-28T15:26:29.136Z,8.78
2018-01-28T15:28:57.396Z,8.89
2018-01-28T15:31:26.444Z,8.80
2018-01-28T15:33:54.708Z,8.60
2018-01-28T15:36:24.933Z,8.59
2018-01-28T15:38:53.192Z,8.29
2018-01-28T15:41:24.479Z,8.34
2018-01-28T15:43:53.681Z,8.52
2018-01-28T15:46:22.729Z,8.72
2018-01-28T15:48:50.982Z,8.72
2018-01-28T15:51:19.272Z,8.70
2018-01-28T15:53:48.481Z,8.56
2018-01-28T15:56:16.758Z,8.56
2018-01-28T15:58:46.948Z,8.30
2018-01-28T16:01:15.212Z,8.18
2018-01-28T16:03:43.486Z,8.20
2018-01-28T16:06:11.771Z,8.07
2018-01-28T16:08:40.065Z,8.43
2018-01-28T16:11:08.361Z,8.03
2018-01-28T16:13:36.629Z,8.25
2018-01-28T16:16:05.779Z,8.08
2018-01-28T16:18:34.041Z,8.06
2018-01-28T16:21:02.325Z,7.94
2018-01-28T16:23:30.584Z,7.97
2018-01-28T16:25:58.861Z,8.03
2018-01-28T16:28:27.116Z,7.87
2018-01-28T16:30:55.402Z,7.56
2018-01-28T16:33:23.727Z,7.56
2018-01-28T16:35:53.401Z,7.80
2018-01-28T16:38:21.664Z,7.56
2018-01-28T16:40:50.767Z,7.44
2018-01-28T16:43:19.797Z,7.56
2018-01-28T16:45:48.080Z,7.50
2018-01-28T16:48:16.341Z,7.41
2018-01-28T16:50:46.084Z,7.64
2018-01-28T16:53:14.494Z,7.59
2018-01-28T16:55:42.761Z,7.63
2018-01-28T16:58:11.805Z,7.66
2018-01-28T17:00:40.071Z,7.91
2018-01-28T17:03:08.356Z,8.07
2018-01-28T17:05:36.620Z,7.74
2018-01-28T17:08:05.675Z,7.67
2018-01-28T17:10:33.957Z,7.77
2018-01-28T17:13:03.005Z,8.00
2018-01-28T17:15:31.266Z,7.86
2018-01-28T17:17:59.550Z,7.76
2018-01-28T17:20:27.807Z,7.53
2018-01-28T17:22:56.086Z,7.80
2018-01-28T17:25:25.129Z,7.82
2018-01-28T17:27:53.406Z,7.89
2018-01-28T17:30:21.675Z,7.72
2018-01-28T17:32:49.951Z,7.75
2018-01-28T17:35:24.480Z,7.68
2018-01-28T17:37:53.528Z,7.73
2018-01-28T17:40:21.820Z,7.87
2018-01-28T17:42:50.092Z,8.12
2018-01-28T17:45:18.370Z,8.06
2018-01-28T17:47:46.988Z,7.96
2018-01-28T17:50:15.257Z,8.18
2018-01-28T17:52:43.532Z,8.04
2018-01-28T17:55:12.581Z,8.20
2018-01-28T17:57:40.870Z,8.16
2018-01-28T18:00:09.144Z,8.00
2018-01-28T18:02:37.425Z,8.23
2018-01-28T18:05:05.693Z,8.39
2018-01-28T18:07:34.741Z,8.34
2018-01-28T18:10:03.000Z,8.03
2018-01-28T18:12:31.280Z,7.94
2018-01-28T18:15:00.304Z,8.15
2018-01-28T18:17:28.585Z,8.33
2018-01-28T18:19:56.859Z,8.25
2018-01-28T18:22:26.625Z,8.31
2018-01-28T18:24:54.910Z,8.24
2018-01-28T18:27:23.181Z,8.20
2018-01-28T18:29:51.461Z,7.94
2018-01-28T18:32:19.736Z,8.09
2018-01-28T18:34:48.768Z,8.18
2018-01-28T18:37:17.044Z,8.26
2018-01-28T18:39:45.317Z,8.56
2018-01-28T18:42:14.360Z,8.30
2018-01-28T18:44:42.630Z,8.64
2018-01-28T18:47:10.909Z,8.87
2018-01-28T18:49:39.181Z,8.83
2018-01-28T18:52:08.234Z,8.42
2018-01-28T18:54:39.640Z,8.71
2018-01-28T18:57:07.911Z,8.68
2018-01-28T18:59:36.180Z,8.68
2018-01-28T19:02:04.461Z,8.72
2018-01-28T19:04:32.732Z,8.65
2018-01-28T19:07:01.025Z,8.89
2018-01-28T19:09:29.289Z,8.86
2018-01-28T19:11:58.329Z,8.73
2018-01-28T19:14:26.605Z,8.89
2018-01-28T19:16:54.893Z,8.59
2018-01-28T19:19:23.184Z,8.87
2018-01-28T19:21:51.455Z,8.79
2018-01-28T19:24:20.490Z,9.07
2018-01-28T19:26:48.771Z,9.20
2018-01-28T19:29:17.045Z,8.95
2018-01-28T19:31:45.339Z,9.10
2018-01-28T19:34:13.596Z,9.17
2018-01-28T19:36:41.874Z,9.04
2018-01-28T19:39:10.153Z,8.93
2018-01-28T19:41:38.440Z,8.96
2018-01-28T19:44:06.717Z,8.98
2018-01-28T19:46:34.986Z,8.86
2018-01-28T19:49:03.261Z,9.19
2018-01-28T19:51:31.519Z,9.18
2018-01-28T19:53:59.796Z,9.06
2018-01-28T19:56:28.064Z,8.98
2018-01-28T19:58:56.345Z,9.08
2018-01-28T20:01:24.609Z,8.76
2018-01-28T20:03:52.879Z,8.68
2018-01-28T20:06:21.147Z,8.57
2018-01-28T20:08:49.427Z,8.59
2018-01-28T20:11:17.697Z,8.79
2018-01-28T20:13:45.970Z,8.82
2018-01-28T20:16:14.234Z,8.92
2018-01-28T20:18:42.512Z,8.66
2018-01-28T20:21:10.771Z,8.52
2018-01-28T20:23:39.048Z,8.51
2018-01-28T20:26:07.304Z,8.74
2018-01-28T20:28:35.589Z,8.70
2018-01-28T20:31:04.649Z,8.67
2018-01-28T20:33:32.912Z,8.77
2018-01-28T20:36:01.207Z,9.04
2018-01-28T20:38:29.477Z,8.86
2018-01-28T20:40:57.752Z,9.11
2018-01-28T20:43:26.044Z,9.36
2018-01-28T20:45:54.312Z,8.98
2018-01-28T20:48:22.586Z,9.27
2018-01-28T20:50:51.642Z,9.37
2018-01-28T20:53:19.921Z,9.20
2018-01-28T20:55:48.193Z,9.06
2018-01-28T20:58:16.472Z,9.40
2018-01-28T21:00:44.737Z,9.45
2018-01-28T21:03:13.771Z,9.33
2018-01-28T21:05:42.844Z,9.63
2018-01-28T21:08:11.888Z,9.44
2018-01-28T21:10:40.135Z,9.51
2018-01-28T21:13:08.408Z,9.30
2018-01-28T21:15:36.672Z,9.65
2018-01-28T21:18:04.945Z,9.49
2018-01-28T21:20:33.204Z,9.70
2018-01-28T21:23:02.242Z,9.69
2018-01-28T21:25:30.517Z,9.45
2018-01-28T21:27:58.796Z,9.45
2018-01-28T21:30:27.062Z,9.53
2018-01-28T21:32:55.323Z,9.63
2018-01-28T21:35:24.527Z,9.49
2018-01-28T21:37:52.835Z,9.32
2018-01-28T21:40:21.099Z,9.34
2018-01-28T21:42:49.376Z,9.52
2018-01-28T21:45:18.536Z,9.40
2018-01-28T21:47:46.817Z,9.45
2018-01-28T21:50:16.068Z,9.60
2018-01-28T21:52:45.287Z,9.48
2018-01-28T21:55:13.556Z,9.18
2018-01-28T21:57:42.770Z,9.22
2018-01-28T22:00:11.033Z,9.29
2018-01-28T22:02:39.353Z,9.30
2018-01-28T22:05:07.616Z,9.48
2018-01-28T22:07:36.653Z,9.33
2018-01-28T22:10:21.985Z,9.11
2018-01-28T22:12:50.290Z,8.99
2018-01-28T22:15:18.576Z,9.01
2018-01-28T22:17:53.436Z,9.22
2018-01-28T22:20:29.704Z,9.05
2018-01-28T22:22:57.991Z,9.25
2018-01-28T22:25:26.275Z,9.30
2018-01-28T22:27:54.572Z,9.50
2018-01-28T22:30:22.833Z,9.21
2018-01-28T22:32:51.096Z,9.43
2018-01-28T22:35:19.367Z,9.07
2018-01-28T22:37:47.672Z,9.28
2018-01-28T22:40:15.989Z,9.17
2018-01-28T22:42:44.284Z,9.13
2018-01-28T22:45:12.587Z,9.09
2018-01-28T22:47:40.875Z,9.13
2018-01-28T22:50:19.008Z,9.25
2018-01-28T22:52:48.079Z,9.58
2018-01-28T22:55:16.344Z,9.31
2018-01-28T22:57:44.620Z,9.36
2018-01-28T23:00:12.908Z,9.27
2018-01-28T23:02:43.141Z,9.17
2018-01-28T23:05:11.433Z,9.35
2018-01-28T23:07:39.704Z,9.40
2018-01-28T23:10:08.751Z,9.09
2018-01-28T23:12:37.025Z,9.36
2018-01-28T23:15:05.307Z,9.50
2018-01-28T23:17:51.948Z,9.58
2018-01-28T23:23:31.489Z,9.32
2018-01-28T23:26:00.526Z,9.28
2018-01-28T23:28:50.065Z,9.45
2018-01-28T23:31:18.358Z,9.75
2018-01-28T23:33:47.425Z,9.91
2018-01-28T23:36:34.688Z,9.88
2018-01-28T23:39:02.976Z,9.77
2018-01-28T23:41:43.612Z,9.44
2018-01-28T23:44:17.572Z,9.56
2018-01-28T23:46:45.892Z,9.75
2018-01-28T23:49:14.947Z,9.44
2018-01-28T23:51:43.221Z,9.60
2018-01-28T23:54:11.523Z,9.90
2018-01-28T23:56:39.800Z,9.51
2018-01-28T23:59:09.019Z,9.31
